sensor_id;sensor_type;location;lat;lon;timestamp;P1;durP1;ratioP1;P2;durP2;ratioP2
2416;SDS011;1219;48.736;9.330;2023-04-24T00:00:56;1.57;;;1.47;;
2416;SDS011;1219;48.736;9.330;2023-04-24T00:03:23;1.50;;;1.40;;
2416;SDS011;1219;48.736;9.330;2023-04-24T00:05:50;1.70;;;1.20;;
2416;SDS011;1219;48.736;9.330;2023-04-24T00:08:17;1.50;;;1.33;;
2416;SDS011;1219;48.736;9.330;2023-04-24T00:10:43;1.80;;;1.33;;
2416;SDS011;1219;48.736;9.330;2023-04-24T00:13:09;1.77;;;1.63;;
2416;SDS011;1219;48.736;9.330;2023-04-24T00:15:35;2.17;;;1.60;;
2416;SDS011;1219;48.736;9.330;2023-04-24T00:18:01;1.73;;;1.40;;
2416;SDS011;1219;48.736;9.330;2023-04-24T00:20:27;2.47;;;1.30;;
2416;SDS011;1219;48.736;9.330;2023-04-24T00:23:02;2.20;;;1.37;;
2416;SDS011;1219;48.736;9.330;2023-04-24T00:25:28;1.30;;;1.20;;
2416;SDS011;1219;48.736;9.330;2023-04-24T00:27:54;1.70;;;1.60;;
2416;SDS011;1219;48.736;9.330;2023-04-24T00:30:20;1.50;;;1.40;;
2416;SDS011;1219;48.736;9.330;2023-04-24T00:32:46;1.67;;;1.40;;
2416;SDS011;1219;48.736;9.330;2023-04-24T00:35:12;1.77;;;1.67;;
2416;SDS011;1219;48.736;9.330;2023-04-24T00:37:39;1.40;;;1.30;;
2416;SDS011;1219;48.736;9.330;2023-04-24T00:40:05;1.60;;;1.50;;
2416;SDS011;1219;48.736;9.330;2023-04-24T00:42:31;4.10;;;2.40;;
2416;SDS011;1219;48.736;9.330;2023-04-24T00:44:58;3.03;;;1.70;;
2416;SDS011;1219;48.736;9.330;2023-04-24T00:47:24;1.77;;;1.67;;
2416;SDS011;1219;48.736;9.330;2023-04-24T00:49:51;2.93;;;1.50;;
2416;SDS011;1219;48.736;9.330;2023-04-24T00:52:16;2.40;;;1.53;;
2416;SDS011;1219;48.736;9.330;2023-04-24T00:54:46;1.77;;;1.67;;
2416;SDS011;1219;48.736;9.330;2023-04-24T00:57:12;1.50;;;1.40;;
2416;SDS011;1219;48.736;9.330;2023-04-24T00:59:40;1.67;;;1.57;;
2416;SDS011;1219;48.736;9.330;2023-04-24T01:02:07;2.30;;;1.83;;
2416;SDS011;1219;48.736;9.330;2023-04-24T01:04:33;1.70;;;1.60;;
2416;SDS011;1219;48.736;9.330;2023-04-24T01:07:00;3.20;;;1.33;;
2416;SDS011;1219;48.736;9.330;2023-04-24T01:09:26;1.57;;;1.30;;
2416;SDS011;1219;48.736;9.330;2023-04-24T01:11:52;1.50;;;1.40;;
2416;SDS011;1219;48.736;9.330;2023-04-24T01:14:18;2.50;;;1.60;;
2416;SDS011;1219;48.736;9.330;2023-04-24T01:16:44;1.50;;;1.40;;
2416;SDS011;1219;48.736;9.330;2023-04-24T01:19:10;1.97;;;1.50;;
2416;SDS011;1219;48.736;9.330;2023-04-24T01:21:37;1.43;;;1.33;;
2416;SDS011;1219;48.736;9.330;2023-04-24T01:24:04;1.30;;;1.20;;
2416;SDS011;1219;48.736;9.330;2023-04-24T01:26:31;2.03;;;1.70;;
2416;SDS011;1219;48.736;9.330;2023-04-24T01:28:57;1.60;;;1.50;;
2416;SDS011;1219;48.736;9.330;2023-04-24T01:31:23;1.60;;;1.50;;
2416;SDS011;1219;48.736;9.330;2023-04-24T01:33:49;1.90;;;1.43;;
2416;SDS011;1219;48.736;9.330;2023-04-24T01:36:15;1.40;;;1.30;;
2416;SDS011;1219;48.736;9.330;2023-04-24T01:38:42;1.60;;;1.20;;
2416;SDS011;1219;48.736;9.330;2023-04-24T01:41:07;1.50;;;1.40;;
2416;SDS011;1219;48.736;9.330;2023-04-24T01:43:33;1.87;;;1.20;;
2416;SDS011;1219;48.736;9.330;2023-04-24T01:46:00;1.40;;;1.30;;
2416;SDS011;1219;48.736;9.330;2023-04-24T01:48:26;1.63;;;1.47;;
2416;SDS011;1219;48.736;9.330;2023-04-24T01:50:52;1.10;;;1.10;;
2416;SDS011;1219;48.736;9.330;2023-04-24T01:53:17;1.40;;;1.30;;
2416;SDS011;1219;48.736;9.330;2023-04-24T01:55:43;1.40;;;1.30;;
2416;SDS011;1219;48.736;9.330;2023-04-24T01:58:10;3.37;;;1.50;;
2416;SDS011;1219;48.736;9.330;2023-04-24T02:00:36;2.23;;;1.40;;
2416;SDS011;1219;48.736;9.330;2023-04-24T02:03:02;1.77;;;1.67;;
2416;SDS011;1219;48.736;9.330;2023-04-24T02:05:28;2.07;;;1.30;;
2416;SDS011;1219;48.736;9.330;2023-04-24T02:07:54;1.53;;;1.40;;
2416;SDS011;1219;48.736;9.330;2023-04-24T02:10:20;1.40;;;1.30;;
2416;SDS011;1219;48.736;9.330;2023-04-24T02:12:46;1.40;;;1.30;;
2416;SDS011;1219;48.736;9.330;2023-04-24T02:15:12;1.60;;;1.50;;
2416;SDS011;1219;48.736;9.330;2023-04-24T02:17:38;3.50;;;1.50;;
2416;SDS011;1219;48.736;9.330;2023-04-24T02:20:04;1.40;;;1.30;;
2416;SDS011;1219;48.736;9.330;2023-04-24T02:22:31;2.90;;;1.90;;
2416;SDS011;1219;48.736;9.330;2023-04-24T02:24:57;1.53;;;1.43;;
2416;SDS011;1219;48.736;9.330;2023-04-24T02:27:23;1.80;;;1.40;;
2416;SDS011;1219;48.736;9.330;2023-04-24T02:29:49;1.40;;;1.30;;
2416;SDS011;1219;48.736;9.330;2023-04-24T02:32:15;2.03;;;1.40;;
2416;SDS011;1219;48.736;9.330;2023-04-24T02:34:41;1.83;;;1.50;;
2416;SDS011;1219;48.736;9.330;2023-04-24T02:37:07;1.37;;;1.27;;
2416;SDS011;1219;48.736;9.330;2023-04-24T02:39:33;2.07;;;1.40;;
2416;SDS011;1219;48.736;9.330;2023-04-24T02:41:59;1.50;;;1.40;;
2416;SDS011;1219;48.736;9.330;2023-04-24T02:44:25;1.80;;;1.70;;
2416;SDS011;1219;48.736;9.330;2023-04-24T02:46:51;1.63;;;1.50;;
2416;SDS011;1219;48.736;9.330;2023-04-24T02:49:17;2.10;;;1.40;;
2416;SDS011;1219;48.736;9.330;2023-04-24T02:51:43;1.40;;;1.30;;
2416;SDS011;1219;48.736;9.330;2023-04-24T02:54:08;1.40;;;1.30;;
2416;SDS011;1219;48.736;9.330;2023-04-24T02:56:35;1.40;;;1.30;;
2416;SDS011;1219;48.736;9.330;2023-04-24T02:59:01;1.50;;;1.40;;
2416;SDS011;1219;48.736;9.330;2023-04-24T03:01:27;1.30;;;1.20;;
2416;SDS011;1219;48.736;9.330;2023-04-24T03:03:53;2.37;;;1.30;;
2416;SDS011;1219;48.736;9.330;2023-04-24T03:06:18;1.37;;;1.27;;
2416;SDS011;1219;48.736;9.330;2023-04-24T03:08:45;1.80;;;1.30;;
2416;SDS011;1219;48.736;9.330;2023-04-24T03:11:11;1.30;;;1.20;;
2416;SDS011;1219;48.736;9.330;2023-04-24T03:13:37;1.63;;;1.40;;
2416;SDS011;1219;48.736;9.330;2023-04-24T03:16:03;1.40;;;1.30;;
2416;SDS011;1219;48.736;9.330;2023-04-24T03:18:30;2.50;;;1.30;;
2416;SDS011;1219;48.736;9.330;2023-04-24T03:20:56;1.73;;;1.20;;
2416;SDS011;1219;48.736;9.330;2023-04-24T03:23:22;1.40;;;1.30;;
2416;SDS011;1219;48.736;9.330;2023-04-24T03:25:48;2.30;;;1.30;;
2416;SDS011;1219;48.736;9.330;2023-04-24T03:28:14;1.33;;;1.23;;
2416;SDS011;1219;48.736;9.330;2023-04-24T03:30:40;1.50;;;1.40;;
2416;SDS011;1219;48.736;9.330;2023-04-24T03:33:06;1.33;;;1.23;;
2416;SDS011;1219;48.736;9.330;2023-04-24T03:35:32;1.67;;;1.57;;
2416;SDS011;1219;48.736;9.330;2023-04-24T03:37:58;1.73;;;1.60;;
2416;SDS011;1219;48.736;9.330;2023-04-24T03:40:24;1.40;;;1.30;;
2416;SDS011;1219;48.736;9.330;2023-04-24T03:42:50;2.67;;;1.30;;
2416;SDS011;1219;48.736;9.330;2023-04-24T03:45:16;2.03;;;1.30;;
2416;SDS011;1219;48.736;9.330;2023-04-24T03:47:42;2.90;;;1.30;;
2416;SDS011;1219;48.736;9.330;2023-04-24T03:50:08;2.73;;;1.50;;
2416;SDS011;1219;48.736;9.330;2023-04-24T03:52:34;1.57;;;1.27;;
2416;SDS011;1219;48.736;9.330;2023-04-24T03:55:00;1.90;;;1.30;;
2416;SDS011;1219;48.736;9.330;2023-04-24T03:57:26;1.30;;;1.20;;
2416;SDS011;1219;48.736;9.330;2023-04-24T03:59:52;1.60;;;1.47;;
2416;SDS011;1219;48.736;9.330;2023-04-24T04:02:18;1.20;;;1.13;;
2416;SDS011;1219;48.736;9.330;2023-04-24T04:04:44;1.50;;;1.40;;
2416;SDS011;1219;48.736;9.330;2023-04-24T04:07:10;1.50;;;1.40;;
2416;SDS011;1219;48.736;9.330;2023-04-24T04:09:37;1.50;;;1.40;;
2416;SDS011;1219;48.736;9.330;2023-04-24T04:12:03;1.37;;;1.27;;
2416;SDS011;1219;48.736;9.330;2023-04-24T04:14:29;4.10;;;1.50;;
2416;SDS011;1219;48.736;9.330;2023-04-24T04:16:55;1.50;;;1.40;;
2416;SDS011;1219;48.736;9.330;2023-04-24T04:19:21;2.03;;;1.40;;
2416;SDS011;1219;48.736;9.330;2023-04-24T04:21:47;2.10;;;1.60;;
2416;SDS011;1219;48.736;9.330;2023-04-24T04:24:18;3.43;;;1.80;;
2416;SDS011;1219;48.736;9.330;2023-04-24T04:26:43;1.60;;;1.50;;
2416;SDS011;1219;48.736;9.330;2023-04-24T04:29:16;1.63;;;1.53;;
2416;SDS011;1219;48.736;9.330;2023-04-24T04:31:42;1.47;;;1.37;;
2416;SDS011;1219;48.736;9.330;2023-04-24T04:34:08;3.03;;;1.30;;
2416;SDS011;1219;48.736;9.330;2023-04-24T04:36:34;1.60;;;1.50;;
2416;SDS011;1219;48.736;9.330;2023-04-24T04:39:01;1.70;;;1.40;;
2416;SDS011;1219;48.736;9.330;2023-04-24T04:41:28;1.53;;;1.30;;
2416;SDS011;1219;48.736;9.330;2023-04-24T04:43:55;1.77;;;1.50;;
2416;SDS011;1219;48.736;9.330;2023-04-24T04:46:23;1.70;;;1.60;;
2416;SDS011;1219;48.736;9.330;2023-04-24T04:48:51;1.60;;;1.47;;
2416;SDS011;1219;48.736;9.330;2023-04-24T04:51:17;2.60;;;1.40;;
2416;SDS011;1219;48.736;9.330;2023-04-24T04:53:43;1.50;;;1.40;;
2416;SDS011;1219;48.736;9.330;2023-04-24T04:56:08;1.50;;;1.40;;
2416;SDS011;1219;48.736;9.330;2023-04-24T04:58:34;2.40;;;1.70;;
2416;SDS011;1219;48.736;9.330;2023-04-24T05:01:00;1.67;;;1.57;;
2416;SDS011;1219;48.736;9.330;2023-04-24T05:03:27;2.70;;;1.67;;
2416;SDS011;1219;48.736;9.330;2023-04-24T05:05:53;1.80;;;1.70;;
2416;SDS011;1219;48.736;9.330;2023-04-24T05:08:19;3.20;;;1.80;;
2416;SDS011;1219;48.736;9.330;2023-04-24T05:10:45;2.30;;;2.10;;
2416;SDS011;1219;48.736;9.330;2023-04-24T05:13:11;1.87;;;1.70;;
2416;SDS011;1219;48.736;9.330;2023-04-24T05:15:37;1.90;;;1.80;;
2416;SDS011;1219;48.736;9.330;2023-04-24T05:18:03;2.03;;;1.80;;
2416;SDS011;1219;48.736;9.330;2023-04-24T05:20:29;2.30;;;2.10;;
2416;SDS011;1219;48.736;9.330;2023-04-24T05:22:55;1.87;;;1.77;;
2416;SDS011;1219;48.736;9.330;2023-04-24T05:25:21;2.03;;;1.87;;
2416;SDS011;1219;48.736;9.330;2023-04-24T05:27:47;2.10;;;1.90;;
2416;SDS011;1219;48.736;9.330;2023-04-24T05:30:13;2.80;;;2.10;;
2416;SDS011;1219;48.736;9.330;2023-04-24T05:32:39;2.93;;;2.73;;
2416;SDS011;1219;48.736;9.330;2023-04-24T05:35:05;1.80;;;1.70;;
2416;SDS011;1219;48.736;9.330;2023-04-24T05:37:31;3.33;;;1.80;;
2416;SDS011;1219;48.736;9.330;2023-04-24T05:39:57;2.23;;;2.03;;
2416;SDS011;1219;48.736;9.330;2023-04-24T05:42:23;1.90;;;1.73;;
2416;SDS011;1219;48.736;9.330;2023-04-24T05:44:50;3.17;;;2.60;;
2416;SDS011;1219;48.736;9.330;2023-04-24T05:47:15;3.63;;;2.40;;
2416;SDS011;1219;48.736;9.330;2023-04-24T05:49:41;2.17;;;1.97;;
2416;SDS011;1219;48.736;9.330;2023-04-24T05:52:07;2.30;;;2.10;;
2416;SDS011;1219;48.736;9.330;2023-04-24T05:54:34;2.33;;;2.13;;
2416;SDS011;1219;48.736;9.330;2023-04-24T05:57:00;4.33;;;2.17;;
2416;SDS011;1219;48.736;9.330;2023-04-24T05:59:29;2.37;;;1.97;;
2416;SDS011;1219;48.736;9.330;2023-04-24T06:01:55;2.80;;;2.60;;
2416;SDS011;1219;48.736;9.330;2023-04-24T06:04:21;2.87;;;2.30;;
2416;SDS011;1219;48.736;9.330;2023-04-24T06:06:47;3.00;;;2.00;;
2416;SDS011;1219;48.736;9.330;2023-04-24T06:09:15;2.60;;;2.40;;
2416;SDS011;1219;48.736;9.330;2023-04-24T06:11:42;3.00;;;2.20;;
2416;SDS011;1219;48.736;9.330;2023-04-24T06:14:08;3.77;;;2.87;;
2416;SDS011;1219;48.736;9.330;2023-04-24T06:16:34;2.33;;;2.13;;
2416;SDS011;1219;48.736;9.330;2023-04-24T06:19:00;2.50;;;1.80;;
2416;SDS011;1219;48.736;9.330;2023-04-24T06:21:26;2.80;;;1.83;;
2416;SDS011;1219;48.736;9.330;2023-04-24T06:23:52;1.70;;;1.60;;
2416;SDS011;1219;48.736;9.330;2023-04-24T06:26:18;2.85;;;2.47;;
2416;SDS011;1219;48.736;9.330;2023-04-24T06:28:44;2.53;;;2.30;;
2416;SDS011;1219;48.736;9.330;2023-04-24T06:31:10;2.43;;;2.23;;
2416;SDS011;1219;48.736;9.330;2023-04-24T06:33:36;2.70;;;2.43;;
2416;SDS011;1219;48.736;9.330;2023-04-24T06:36:02;2.40;;;2.20;;
2416;SDS011;1219;48.736;9.330;2023-04-24T06:38:29;4.20;;;2.17;;
2416;SDS011;1219;48.736;9.330;2023-04-24T06:40:55;4.43;;;2.40;;
2416;SDS011;1219;48.736;9.330;2023-04-24T06:43:21;2.13;;;2.03;;
2416;SDS011;1219;48.736;9.330;2023-04-24T06:45:47;2.40;;;2.20;;
2416;SDS011;1219;48.736;9.330;2023-04-24T06:48:13;3.07;;;2.77;;
2416;SDS011;1219;48.736;9.330;2023-04-24T06:50:38;2.80;;;1.90;;
2416;SDS011;1219;48.736;9.330;2023-04-24T06:53:04;6.90;;;2.60;;
2416;SDS011;1219;48.736;9.330;2023-04-24T06:55:30;2.30;;;2.20;;
2416;SDS011;1219;48.736;9.330;2023-04-24T06:57:56;2.17;;;2.00;;
2416;SDS011;1219;48.736;9.330;2023-04-24T07:00:22;7.50;;;4.50;;
2416;SDS011;1219;48.736;9.330;2023-04-24T07:02:49;2.60;;;2.40;;
2416;SDS011;1219;48.736;9.330;2023-04-24T07:05:15;2.70;;;2.30;;
2416;SDS011;1219;48.736;9.330;2023-04-24T07:07:44;2.53;;;2.43;;
2416;SDS011;1219;48.736;9.330;2023-04-24T07:10:11;3.83;;;2.53;;
2416;SDS011;1219;48.736;9.330;2023-04-24T07:12:38;2.20;;;2.00;;
2416;SDS011;1219;48.736;9.330;2023-04-24T07:15:05;2.60;;;2.40;;
2416;SDS011;1219;48.736;9.330;2023-04-24T07:17:31;5.07;;;2.23;;
2416;SDS011;1219;48.736;9.330;2023-04-24T07:19:57;2.23;;;2.13;;
2416;SDS011;1219;48.736;9.330;2023-04-24T07:22:23;6.80;;;2.63;;
2416;SDS011;1219;48.736;9.330;2023-04-24T07:24:49;2.20;;;2.10;;
2416;SDS011;1219;48.736;9.330;2023-04-24T07:27:15;2.27;;;2.13;;
2416;SDS011;1219;48.736;9.330;2023-04-24T07:29:41;2.10;;;1.60;;
2416;SDS011;1219;48.736;9.330;2023-04-24T07:32:07;2.00;;;1.90;;
2416;SDS011;1219;48.736;9.330;2023-04-24T07:34:33;2.03;;;1.93;;
2416;SDS011;1219;48.736;9.330;2023-04-24T07:36:59;2.40;;;1.90;;
2416;SDS011;1219;48.736;9.330;2023-04-24T07:39:25;2.27;;;2.17;;
2416;SDS011;1219;48.736;9.330;2023-04-24T07:41:51;2.03;;;1.93;;
2416;SDS011;1219;48.736;9.330;2023-04-24T07:44:17;1.90;;;1.80;;
2416;SDS011;1219;48.736;9.330;2023-04-24T07:46:43;1.70;;;1.60;;
2416;SDS011;1219;48.736;9.330;2023-04-24T07:49:09;2.43;;;2.23;;
2416;SDS011;1219;48.736;9.330;2023-04-24T07:51:35;2.10;;;2.00;;
2416;SDS011;1219;48.736;9.330;2023-04-24T07:54:03;2.37;;;2.10;;
2416;SDS011;1219;48.736;9.330;2023-04-24T07:56:31;2.20;;;2.10;;
2416;SDS011;1219;48.736;9.330;2023-04-24T07:58:57;1.93;;;1.83;;
2416;SDS011;1219;48.736;9.330;2023-04-24T08:01:22;1.90;;;1.80;;
2416;SDS011;1219;48.736;9.330;2023-04-24T08:03:49;1.80;;;1.70;;
2416;SDS011;1219;48.736;9.330;2023-04-24T08:06:14;1.90;;;1.80;;
2416;SDS011;1219;48.736;9.330;2023-04-24T08:08:40;1.80;;;1.70;;
2416;SDS011;1219;48.736;9.330;2023-04-24T08:11:07;2.00;;;1.90;;
2416;SDS011;1219;48.736;9.330;2023-04-24T08:13:33;2.07;;;1.93;;
2416;SDS011;1219;48.736;9.330;2023-04-24T08:15:59;3.00;;;1.70;;
2416;SDS011;1219;48.736;9.330;2023-04-24T08:18:25;2.00;;;1.90;;
2416;SDS011;1219;48.736;9.330;2023-04-24T08:20:51;2.10;;;1.80;;
2416;SDS011;1219;48.736;9.330;2023-04-24T08:23:17;2.57;;;1.90;;
2416;SDS011;1219;48.736;9.330;2023-04-24T08:25:43;1.80;;;1.70;;
2416;SDS011;1219;48.736;9.330;2023-04-24T08:28:09;2.47;;;2.37;;
2416;SDS011;1219;48.736;9.330;2023-04-24T08:30:35;1.93;;;1.83;;
2416;SDS011;1219;48.736;9.330;2023-04-24T08:33:03;1.90;;;1.80;;
2416;SDS011;1219;48.736;9.330;2023-04-24T08:35:29;1.93;;;1.83;;
2416;SDS011;1219;48.736;9.330;2023-04-24T08:37:55;2.27;;;2.07;;
2416;SDS011;1219;48.736;9.330;2023-04-24T08:40:22;3.43;;;2.00;;
2416;SDS011;1219;48.736;9.330;2023-04-24T08:42:54;2.30;;;1.90;;
2416;SDS011;1219;48.736;9.330;2023-04-24T08:45:21;2.60;;;2.40;;
2416;SDS011;1219;48.736;9.330;2023-04-24T08:47:47;2.27;;;2.17;;
2416;SDS011;1219;48.736;9.330;2023-04-24T08:50:14;2.67;;;2.00;;
2416;SDS011;1219;48.736;9.330;2023-04-24T08:52:41;2.03;;;1.93;;
2416;SDS011;1219;48.736;9.330;2023-04-24T08:55:07;4.50;;;1.90;;
2416;SDS011;1219;48.736;9.330;2023-04-24T08:57:33;2.30;;;2.10;;
2416;SDS011;1219;48.736;9.330;2023-04-24T09:00:00;1.80;;;1.70;;
2416;SDS011;1219;48.736;9.330;2023-04-24T09:02:27;2.23;;;2.03;;
2416;SDS011;1219;48.736;9.330;2023-04-24T09:04:53;1.80;;;1.70;;
2416;SDS011;1219;48.736;9.330;2023-04-24T09:07:19;2.27;;;2.03;;
2416;SDS011;1219;48.736;9.330;2023-04-24T09:09:45;3.17;;;2.20;;
2416;SDS011;1219;48.736;9.330;2023-04-24T09:12:12;2.00;;;1.90;;
2416;SDS011;1219;48.736;9.330;2023-04-24T09:14:38;2.17;;;1.83;;
2416;SDS011;1219;48.736;9.330;2023-04-24T09:17:07;2.13;;;1.93;;
2416;SDS011;1219;48.736;9.330;2023-04-24T09:19:33;3.63;;;1.80;;
2416;SDS011;1219;48.736;9.330;2023-04-24T09:21:59;3.53;;;2.00;;
2416;SDS011;1219;48.736;9.330;2023-04-24T09:24:26;2.33;;;2.00;;
2416;SDS011;1219;48.736;9.330;2023-04-24T09:26:56;2.23;;;1.87;;
2416;SDS011;1219;48.736;9.330;2023-04-24T09:29:23;1.50;;;1.40;;
2416;SDS011;1219;48.736;9.330;2023-04-24T09:31:49;1.80;;;1.70;;
2416;SDS011;1219;48.736;9.330;2023-04-24T09:34:18;2.60;;;2.10;;
2416;SDS011;1219;48.736;9.330;2023-04-24T09:36:46;2.20;;;2.10;;
2416;SDS011;1219;48.736;9.330;2023-04-24T09:39:13;2.10;;;1.87;;
2416;SDS011;1219;48.736;9.330;2023-04-24T09:41:44;3.03;;;1.47;;
2416;SDS011;1219;48.736;9.330;2023-04-24T09:44:15;2.47;;;2.37;;
2416;SDS011;1219;48.736;9.330;2023-04-24T09:46:42;1.50;;;1.40;;
2416;SDS011;1219;48.736;9.330;2023-04-24T09:49:15;2.20;;;2.00;;
2416;SDS011;1219;48.736;9.330;2023-04-24T09:51:41;2.13;;;1.93;;
2416;SDS011;1219;48.736;9.330;2023-04-24T09:54:13;3.57;;;2.10;;
2416;SDS011;1219;48.736;9.330;2023-04-24T09:56:41;1.83;;;1.73;;
2416;SDS011;1219;48.736;9.330;2023-04-24T09:59:08;1.63;;;1.53;;
2416;SDS011;1219;48.736;9.330;2023-04-24T10:01:34;1.67;;;1.57;;
2416;SDS011;1219;48.736;9.330;2023-04-24T10:04:01;1.90;;;1.57;;
2416;SDS011;1219;48.736;9.330;2023-04-24T10:06:33;2.00;;;1.37;;
2416;SDS011;1219;48.736;9.330;2023-04-24T10:08:59;1.40;;;1.30;;
2416;SDS011;1219;48.736;9.330;2023-04-24T10:11:26;1.43;;;1.33;;
2416;SDS011;1219;48.736;9.330;2023-04-24T10:13:53;2.03;;;1.50;;
2416;SDS011;1219;48.736;9.330;2023-04-24T10:16:19;1.87;;;1.47;;
2416;SDS011;1219;48.736;9.330;2023-04-24T10:18:45;1.60;;;1.50;;
2416;SDS011;1219;48.736;9.330;2023-04-24T10:21:12;1.60;;;1.50;;
2416;SDS011;1219;48.736;9.330;2023-04-24T10:23:38;3.70;;;1.67;;
2416;SDS011;1219;48.736;9.330;2023-04-24T10:26:05;2.07;;;1.40;;
2416;SDS011;1219;48.736;9.330;2023-04-24T10:28:31;1.50;;;1.40;;
2416;SDS011;1219;48.736;9.330;2023-04-24T10:30:57;1.70;;;1.60;;
2416;SDS011;1219;48.736;9.330;2023-04-24T10:33:23;1.63;;;1.53;;
2416;SDS011;1219;48.736;9.330;2023-04-24T10:35:50;1.67;;;1.40;;
2416;SDS011;1219;48.736;9.330;2023-04-24T10:38:18;1.30;;;1.20;;
2416;SDS011;1219;48.736;9.330;2023-04-24T10:40:49;1.10;;;1.10;;
2416;SDS011;1219;48.736;9.330;2023-04-24T10:43:16;1.50;;;1.10;;
2416;SDS011;1219;48.736;9.330;2023-04-24T10:45:42;1.30;;;1.13;;
2416;SDS011;1219;48.736;9.330;2023-04-24T10:48:26;1.10;;;1.00;;
2416;SDS011;1219;48.736;9.330;2023-04-24T10:50:53;1.23;;;1.10;;
2416;SDS011;1219;48.736;9.330;2023-04-24T10:53:20;1.10;;;1.00;;
2416;SDS011;1219;48.736;9.330;2023-04-24T10:55:48;1.77;;;1.30;;
2416;SDS011;1219;48.736;9.330;2023-04-24T10:58:15;1.10;;;1.00;;
2416;SDS011;1219;48.736;9.330;2023-04-24T11:00:42;1.20;;;1.10;;
2416;SDS011;1219;48.736;9.330;2023-04-24T11:03:28;1.30;;;1.20;;
2416;SDS011;1219;48.736;9.330;2023-04-24T11:06:01;1.70;;;1.60;;
2416;SDS011;1219;48.736;9.330;2023-04-24T11:08:29;1.30;;;1.20;;
2416;SDS011;1219;48.736;9.330;2023-04-24T11:10:56;2.33;;;1.40;;
2416;SDS011;1219;48.736;9.330;2023-04-24T11:13:23;1.43;;;1.27;;
2416;SDS011;1219;48.736;9.330;2023-04-24T11:18:38;1.47;;;1.37;;
2416;SDS011;1219;48.736;9.330;2023-04-24T11:21:11;1.43;;;1.33;;
2416;SDS011;1219;48.736;9.330;2023-04-24T11:23:37;1.67;;;1.57;;
2416;SDS011;1219;48.736;9.330;2023-04-24T11:26:10;1.67;;;1.50;;
2416;SDS011;1219;48.736;9.330;2023-04-24T11:28:36;1.50;;;1.40;;
2416;SDS011;1219;48.736;9.330;2023-04-24T11:33:47;2.30;;;1.93;;
2416;SDS011;1219;48.736;9.330;2023-04-24T11:36:13;1.60;;;1.50;;
2416;SDS011;1219;48.736;9.330;2023-04-24T11:38:39;1.90;;;1.80;;
2416;SDS011;1219;48.736;9.330;2023-04-24T11:41:06;2.10;;;2.00;;
2416;SDS011;1219;48.736;9.330;2023-04-24T11:43:32;1.90;;;1.80;;
2416;SDS011;1219;48.736;9.330;2023-04-24T11:45:59;1.40;;;1.30;;
2416;SDS011;1219;48.736;9.330;2023-04-24T11:48:25;1.40;;;1.30;;
2416;SDS011;1219;48.736;9.330;2023-04-24T11:50:51;1.70;;;1.40;;
2416;SDS011;1219;48.736;9.330;2023-04-24T11:53:19;2.30;;;1.43;;
2416;SDS011;1219;48.736;9.330;2023-04-24T11:55:46;2.60;;;1.40;;
2416;SDS011;1219;48.736;9.330;2023-04-24T11:58:12;1.57;;;1.47;;
2416;SDS011;1219;48.736;9.330;2023-04-24T12:00:38;1.33;;;1.23;;
2416;SDS011;1219;48.736;9.330;2023-04-24T12:03:05;1.30;;;1.20;;
2416;SDS011;1219;48.736;9.330;2023-04-24T12:05:32;1.50;;;1.40;;
2416;SDS011;1219;48.736;9.330;2023-04-24T12:07:58;1.83;;;1.73;;
2416;SDS011;1219;48.736;9.330;2023-04-24T12:10:25;1.57;;;1.47;;
2416;SDS011;1219;48.736;9.330;2023-04-24T12:12:52;5.37;;;1.97;;
2416;SDS011;1219;48.736;9.330;2023-04-24T12:15:19;1.70;;;1.50;;
2416;SDS011;1219;48.736;9.330;2023-04-24T12:17:46;1.53;;;1.30;;
2416;SDS011;1219;48.736;9.330;2023-04-24T12:20:12;1.40;;;1.30;;
2416;SDS011;1219;48.736;9.330;2023-04-24T12:22:49;1.50;;;1.40;;
2416;SDS011;1219;48.736;9.330;2023-04-24T12:25:15;1.63;;;1.50;;
2416;SDS011;1219;48.736;9.330;2023-04-24T12:27:41;1.40;;;1.30;;
2416;SDS011;1219;48.736;9.330;2023-04-24T12:30:10;1.30;;;1.20;;
2416;SDS011;1219;48.736;9.330;2023-04-24T12:32:40;1.60;;;1.50;;
2416;SDS011;1219;48.736;9.330;2023-04-24T12:35:06;1.87;;;1.60;;
2416;SDS011;1219;48.736;9.330;2023-04-24T12:37:32;2.63;;;1.40;;
2416;SDS011;1219;48.736;9.330;2023-04-24T12:40:02;1.30;;;1.20;;
2416;SDS011;1219;48.736;9.330;2023-04-24T12:42:28;1.40;;;1.30;;
2416;SDS011;1219;48.736;9.330;2023-04-24T12:45:04;2.10;;;1.90;;
2416;SDS011;1219;48.736;9.330;2023-04-24T12:47:31;3.10;;;1.60;;
2416;SDS011;1219;48.736;9.330;2023-04-24T12:49:57;1.40;;;1.23;;
2416;SDS011;1219;48.736;9.330;2023-04-24T12:52:23;1.67;;;1.57;;
2416;SDS011;1219;48.736;9.330;2023-04-24T12:54:50;1.43;;;1.33;;
2416;SDS011;1219;48.736;9.330;2023-04-24T12:57:18;1.50;;;1.40;;
2416;SDS011;1219;48.736;9.330;2023-04-24T12:59:43;1.40;;;1.30;;
2416;SDS011;1219;48.736;9.330;2023-04-24T13:02:10;1.40;;;1.30;;
2416;SDS011;1219;48.736;9.330;2023-04-24T13:04:36;3.87;;;1.50;;
2416;SDS011;1219;48.736;9.330;2023-04-24T13:07:02;1.30;;;1.20;;
2416;SDS011;1219;48.736;9.330;2023-04-24T13:09:28;1.53;;;1.33;;
2416;SDS011;1219;48.736;9.330;2023-04-24T13:11:54;1.90;;;1.30;;
2416;SDS011;1219;48.736;9.330;2023-04-24T13:14:21;1.37;;;1.27;;
2416;SDS011;1219;48.736;9.330;2023-04-24T13:16:47;1.60;;;1.50;;
2416;SDS011;1219;48.736;9.330;2023-04-24T13:19:13;1.47;;;1.30;;
2416;SDS011;1219;48.736;9.330;2023-04-24T13:21:40;1.30;;;1.20;;
2416;SDS011;1219;48.736;9.330;2023-04-24T13:24:06;2.50;;;1.60;;
2416;SDS011;1219;48.736;9.330;2023-04-24T13:26:32;1.60;;;1.50;;
2416;SDS011;1219;48.736;9.330;2023-04-24T13:28:58;2.60;;;1.80;;
2416;SDS011;1219;48.736;9.330;2023-04-24T13:31:24;1.80;;;1.70;;
2416;SDS011;1219;48.736;9.330;2023-04-24T13:33:50;1.67;;;1.57;;
2416;SDS011;1219;48.736;9.330;2023-04-24T13:36:16;1.83;;;1.73;;
2416;SDS011;1219;48.736;9.330;2023-04-24T13:38:43;1.90;;;1.80;;
2416;SDS011;1219;48.736;9.330;2023-04-24T13:41:09;1.97;;;1.87;;
2416;SDS011;1219;48.736;9.330;2023-04-24T13:43:36;1.83;;;1.40;;
2416;SDS011;1219;48.736;9.330;2023-04-24T13:46:02;1.47;;;1.37;;
2416;SDS011;1219;48.736;9.330;2023-04-24T13:48:28;1.33;;;1.23;;
2416;SDS011;1219;48.736;9.330;2023-04-24T13:50:54;1.60;;;1.50;;
2416;SDS011;1219;48.736;9.330;2023-04-24T13:53:20;3.83;;;1.50;;
2416;SDS011;1219;48.736;9.330;2023-04-24T13:55:46;3.03;;;1.87;;
2416;SDS011;1219;48.736;9.330;2023-04-24T13:58:12;1.70;;;1.53;;
2416;SDS011;1219;48.736;9.330;2023-04-24T14:00:38;1.60;;;1.50;;
2416;SDS011;1219;48.736;9.330;2023-04-24T14:03:04;1.90;;;1.80;;
2416;SDS011;1219;48.736;9.330;2023-04-24T14:05:30;3.40;;;1.77;;
2416;SDS011;1219;48.736;9.330;2023-04-24T14:07:56;2.00;;;1.90;;
2416;SDS011;1219;48.736;9.330;2023-04-24T14:10:22;2.07;;;1.97;;
2416;SDS011;1219;48.736;9.330;2023-04-24T14:12:48;1.80;;;1.70;;
2416;SDS011;1219;48.736;9.330;2023-04-24T14:15:14;3.30;;;2.20;;
2416;SDS011;1219;48.736;9.330;2023-04-24T14:17:40;1.73;;;1.63;;
2416;SDS011;1219;48.736;9.330;2023-04-24T14:20:06;2.27;;;1.87;;
2416;SDS011;1219;48.736;9.330;2023-04-24T14:22:33;1.87;;;1.77;;
2416;SDS011;1219;48.736;9.330;2023-04-24T14:25:00;4.23;;;1.60;;
2416;SDS011;1219;48.736;9.330;2023-04-24T14:27:25;1.77;;;1.67;;
2416;SDS011;1219;48.736;9.330;2023-04-24T14:29:52;3.23;;;1.83;;
2416;SDS011;1219;48.736;9.330;2023-04-24T14:32:18;1.80;;;1.70;;
2416;SDS011;1219;48.736;9.330;2023-04-24T14:34:44;2.00;;;1.90;;
2416;SDS011;1219;48.736;9.330;2023-04-24T14:37:10;2.17;;;1.93;;
2416;SDS011;1219;48.736;9.330;2023-04-24T14:39:35;2.43;;;2.23;;
2416;SDS011;1219;48.736;9.330;2023-04-24T14:42:01;1.67;;;1.50;;
2416;SDS011;1219;48.736;9.330;2023-04-24T14:44:27;1.50;;;1.40;;
2416;SDS011;1219;48.736;9.330;2023-04-24T14:46:53;1.73;;;1.63;;
2416;SDS011;1219;48.736;9.330;2023-04-24T14:49:20;2.20;;;2.00;;
2416;SDS011;1219;48.736;9.330;2023-04-24T14:51:46;1.97;;;1.70;;
2416;SDS011;1219;48.736;9.330;2023-04-24T14:54:12;1.87;;;1.77;;
2416;SDS011;1219;48.736;9.330;2023-04-24T14:56:38;1.70;;;1.60;;
2416;SDS011;1219;48.736;9.330;2023-04-24T14:59:05;1.77;;;1.60;;
2416;SDS011;1219;48.736;9.330;2023-04-24T15:01:32;1.80;;;1.70;;
2416;SDS011;1219;48.736;9.330;2023-04-24T15:03:58;3.40;;;1.50;;
2416;SDS011;1219;48.736;9.330;2023-04-24T15:06:24;1.50;;;1.40;;
2416;SDS011;1219;48.736;9.330;2023-04-24T15:08:50;1.93;;;1.70;;
2416;SDS011;1219;48.736;9.330;2023-04-24T15:11:16;2.60;;;1.67;;
2416;SDS011;1219;48.736;9.330;2023-04-24T15:13:42;1.80;;;1.70;;
2416;SDS011;1219;48.736;9.330;2023-04-24T15:16:09;1.57;;;1.47;;